aviador You're here:

KVDF Decoded Metar

TAMPA/VANDENBURG in FL, USA
Report Time2017-06-24 23:55:00
UTC Time2017-06-25 00:04:54
Flight Rules vfr VFR
Wind260° at 04 kt
W.Decomp.*RWY 23: 3.3 kt HW 2.2 kt RCW
RWY 18: 0.4 kt HW 4.0 kt RCW
W.Rank260° ranks 36
Current wind is below 260° avg. (4.2)
Visibility9999 m
Phenomena:N/A
Clouds:N/A
Expected CloudBase > 4,000 ft AGL from Temp-Dew spread
CeilingNone
Temp32°C (ISA +17)
Dew Point22°C (55% RH)
Heat Index35.6°C
QNH1017 hPa
Density Alt2,182 ft
Elevation23 ft
Report Wrong Elevation
Raw Report
METAR KVDF 242355Z AUTO 26004KT 10SM CLR 32/22 A3004 RMK AO2=

Extra information for KVDF:More info

Metar Taf Metar & Taf Last 4 Metars F.Rules Stats Wind Profile Meteogram Temp Stats Airport Information Weather charts Add Link Nearby VenuesMetar ALERT Operation Metar Decoded Social comments

AIRNAV info for KVDF